Time;durP1;ratioP1;P1;durP2;ratioP2;P2;SDS_P1;SDS_P2;PMS_P1;PMS_P2;Temp;Humidity;BMP_temperature;BMP_pressure;BME280_temperature;BME280_humidity;BME280_pressure;Samples;Min_cycle;Max_cycle;Signal;HPM_P1;HPM_P2
2022/04/13 04:43:46;;;;;;;6.23;4.80;;;;;;;;;;5153667;27;20564;-76
2022/04/13 04:46:18;;;;;;;7.73;5.17;;;;;;;;;;5151557;27;20523;-78
2022/04/13 04:48:45;;;;;;;8.47;5.10;;;;;;;;;;5152038;27;20190;-77
2022/04/13 04:51:13;;;;;;;6.07;5.10;;;;;;;;;;5151528;27;20241;-77
2022/04/13 04:53:43;;;;;;;6.27;5.20;;;;;;;;;;5150018;27;20306;-77
2022/04/13 04:56:11;;;;;;;8.87;5.23;;;;;;;;;;5148127;27;20190;-77
2022/04/13 04:58:40;;;;;;;5.80;4.93;;;;;;;;;;5150393;27;20225;-77
2022/04/13 05:01:13;;;;;;;6.50;5.03;;;;;;;;;;5148874;27;20229;-77
2022/04/13 05:03:43;;;;;;;8.67;5.47;;;;;;;;;;5148455;27;20201;-77
2022/04/13 05:06:10;;;;;;;9.73;5.57;;;;;;;;;;5150409;27;20194;-78
2022/04/13 05:08:39;;;;;;;11.03;5.40;;;;;;;;;;5153067;27;20201;-75
2022/04/13 05:11:06;;;;;;;7.57;5.03;;;;;;;;;;5151086;27;20213;-78
2022/04/13 05:13:35;;;;;;;8.30;5.63;;;;;;;;;;5154667;27;20237;-76
2022/04/13 05:16:02;;;;;;;6.37;5.23;;;;;;;;;;5148451;27;20194;-76
2022/04/13 05:18:31;;;;;;;5.67;5.10;;;;;;;;;;5153512;27;20210;-76
2022/04/13 05:20:59;;;;;;;11.10;5.77;;;;;;;;;;5150274;27;20232;-75
2022/04/13 05:23:26;;;;;;;7.23;5.23;;;;;;;;;;5154885;27;20257;-77
2022/04/13 05:25:53;;;;;;;9.77;5.00;;;;;;;;;;5151006;27;20575;-75
2022/04/13 05:28:21;;;;;;;9.30;5.80;;;;;;;;;;5149456;27;20232;-76
2022/04/13 05:30:51;;;;;;;6.30;5.70;;;;;;;;;;5149362;27;20217;-76
2022/04/13 05:33:18;;;;;;;7.77;5.40;;;;;;;;;;5149422;27;20250;-76
2022/04/13 05:35:47;;;;;;;6.27;4.70;;;;;;;;;;5148831;27;20283;-75
2022/04/13 05:38:14;;;;;;;7.13;5.40;;;;;;;;;;5146836;27;20194;-76
2022/04/13 05:40:43;;;;;;;6.00;4.63;;;;;;;;;;5149223;27;20224;-76
2022/04/13 05:43:10;;;;;;;8.43;5.23;;;;;;;;;;5149028;27;20198;-76
2022/04/13 05:45:38;;;;;;;7.10;4.83;;;;;;;;;;5149037;27;20209;-76
2022/04/13 05:48:06;;;;;;;5.50;4.73;;;;;;;;;;5149108;27;20206;-76
2022/04/13 05:50:33;;;;;;;8.40;5.00;;;;;;;;;;5145880;27;20309;-76
2022/04/13 05:53:02;;;;;;;7.87;5.20;;;;;;;;;;5143121;27;20234;-76
2022/04/13 05:55:29;;;;;;;6.30;5.10;;;;;;;;;;5132233;27;20267;-76
2022/04/13 05:57:57;;;;;;;6.60;4.97;;;;;;;;;;5132308;27;20668;-75
2022/04/13 06:00:24;;;;;;;9.20;5.07;;;;;;;;;;5131069;27;20264;-78
2022/04/13 06:02:52;;;;;;;8.53;5.33;;;;;;;;;;5126252;27;20199;-76
2022/04/13 06:05:20;;;;;;;11.20;5.70;;;;;;;;;;5127338;27;20203;-76
2022/04/13 06:07:47;;;;;;;7.63;5.17;;;;;;;;;;5125414;27;20202;-76
2022/04/13 06:10:19;;;;;;;8.73;5.77;;;;;;;;;;5134423;27;20195;-76
2022/04/13 06:12:53;;;;;;;9.50;5.17;;;;;;;;;;5135821;27;20211;-76
2022/04/13 06:15:35;;;;;;;6.37;5.13;;;;;;;;;;5138017;27;20258;-83
2022/04/13 06:18:07;;;;;;;7.77;5.33;;;;;;;;;;5136778;27;20202;-78
2022/04/13 06:20:37;;;;;;;5.90;5.30;;;;;;;;;;5140037;27;20222;-84
2022/04/13 06:23:07;;;;;;;7.73;4.83;;;;;;;;;;5138627;27;20187;-76
2022/04/13 06:25:36;;;;;;;7.87;4.87;;;;;;;;;;5134973;27;20221;-76
2022/04/13 06:28:05;;;;;;;6.30;5.67;;;;;;;;;;5135776;27;20202;-77
2022/04/13 06:33:10;;;;;;;5.37;4.73;;;;;;;;;;5057581;28;20228;-80
2022/04/13 06:35:37;;;;;;;6.40;4.60;;;;;;;;;;5062766;28;20243;-80
2022/04/13 06:38:04;;;;;;;5.63;4.30;;;;;;;;;;5063357;28;20205;-80
2022/04/13 06:40:50;;;;;;;5.17;4.73;;;;;;;;;;5063902;28;20255;-84
2022/04/13 06:43:32;;;;;;;6.83;5.13;;;;;;;;;;5043358;28;20218;-82
2022/04/13 06:45:59;;;;;;;5.57;4.90;;;;;;;;;;5044745;28;20202;-82
2022/04/13 06:48:38;;;;;;;7.70;4.97;;;;;;;;;;5036614;28;20198;-82
2022/04/13 06:51:09;;;;;;;5.80;5.30;;;;;;;;;;5047408;28;20241;-82
2022/04/13 06:53:36;;;;;;;5.80;5.20;;;;;;;;;;5045526;28;20237;-82
2022/04/13 06:56:08;;;;;;;5.22;4.72;;;;;;;;;;5044720;28;20221;-82
2022/04/13 06:58:42;;;;;;;9.07;5.17;;;;;;;;;;5046539;28;20198;-82
2022/04/13 07:01:10;;;;;;;6.40;4.43;;;;;;;;;;5049865;28;20237;-82
2022/04/13 07:03:41;;;;;;;5.70;4.72;;;;;;;;;;5050790;28;20194;-82
2022/04/13 07:06:11;;;;;;;6.07;4.95;;;;;;;;;;5045442;28;20194;-82
2022/04/13 07:08:39;;;;;;;5.57;4.55;;;;;;;;;;5044602;28;20233;-82
2022/04/13 07:11:13;;;;;;;8.00;4.30;;;;;;;;;;5045366;28;20230;-80
2022/04/13 07:13:41;;;;;;;5.78;4.55;;;;;;;;;;5046157;28;20252;-81
2022/04/13 07:16:08;;;;;;;4.60;4.18;;;;;;;;;;5047801;28;20190;-82
2022/04/13 07:18:36;;;;;;;16.98;13.95;;;;;;;;;;5057385;28;20211;-82
2022/04/13 07:21:04;;;;;;;7.65;5.80;;;;;;;;;;5053354;28;20217;-83
2022/04/13 07:23:34;;;;;;;7.82;4.72;;;;;;;;;;5052894;28;20198;-83
2022/04/13 07:26:03;;;;;;;7.72;4.53;;;;;;;;;;5048669;28;20202;-80
2022/04/13 07:28:33;;;;;;;5.07;4.57;;;;;;;;;;5049130;28;20216;-82
2022/04/13 07:31:00;;;;;;;5.63;4.15;;;;;;;;;;5052995;28;20256;-80
2022/04/13 07:33:31;;;;;;;5.22;4.10;;;;;;;;;;5088796;28;20220;-81
2022/04/13 07:36:06;;;;;;;4.65;4.25;;;;;;;;;;5089360;28;20234;-82
2022/04/13 07:38:41;;;;;;;4.72;4.32;;;;;;;;;;5087455;28;20207;-82
2022/04/13 07:41:34;;;;;;;4.70;4.30;;;;;;;;;;5088157;28;20220;-81
2022/04/13 07:44:18;;;;;;;7.30;4.25;;;;;;;;;;5080120;28;20197;-83
2022/04/13 07:46:46;;;;;;;5.68;4.68;;;;;;;;;;5068082;28;20204;-81
2022/04/13 07:49:24;;;;;;;6.50;4.70;;;;;;;;;;5069678;28;20193;-80
2022/04/13 07:51:52;;;;;;;6.10;4.70;;;;;;;;;;5066030;28;20217;-80
2022/04/13 07:54:19;;;;;;;6.00;3.92;;;;;;;;;;5060786;28;20205;-80
2022/04/13 07:56:46;;;;;;;4.32;3.55;;;;;;;;;;5072412;28;20212;-80
2022/04/13 07:59:15;;;;;;;3.60;3.30;;;;;;;;;;5073699;28;20196;-80
2022/04/13 08:01:43;;;;;;;5.10;3.78;;;;;;;;;;5081803;28;20248;-80
2022/04/13 08:04:10;;;;;;;5.03;3.38;;;;;;;;;;5081708;28;20220;-80
2022/04/13 08:06:40;;;;;;;3.63;2.83;;;;;;;;;;5080379;28;20205;-80
2022/04/13 08:09:10;;;;;;;4.95;3.25;;;;;;;;;;5076503;28;20211;-82
2022/04/13 08:11:37;;;;;;;4.35;2.97;;;;;;;;;;5079366;28;20311;-80
2022/04/13 08:14:04;;;;;;;3.90;2.65;;;;;;;;;;5081457;28;20208;-80
2022/04/13 08:16:33;;;;;;;4.75;2.95;;;;;;;;;;5073482;28;20284;-81
2022/04/13 08:19:01;;;;;;;5.25;2.50;;;;;;;;;;5084114;28;20227;-81
2022/04/13 08:21:34;;;;;;;7.97;3.45;;;;;;;;;;5070605;28;20229;-80
2022/04/13 08:24:01;;;;;;;9.35;3.30;;;;;;;;;;5063227;28;20287;-80
2022/04/13 08:26:29;;;;;;;5.45;3.00;;;;;;;;;;5063019;28;20205;-80
2022/04/13 08:28:56;;;;;;;12.00;3.35;;;;;;;;;;5062950;28;20201;-80
2022/04/13 08:31:23;;;;;;;9.82;2.90;;;;;;;;;;5073160;28;20259;-80
2022/04/13 08:33:52;;;;;;;6.97;2.20;;;;;;;;;;5070865;28;20227;-80
2022/04/13 08:36:20;;;;;;;4.88;2.28;;;;;;;;;;5075192;28;20258;-81
2022/04/13 08:38:47;;;;;;;3.25;1.95;;;;;;;;;;5075462;28;20208;-80
2022/04/13 08:41:16;;;;;;;3.22;2.17;;;;;;;;;;5083403;28;20217;-80
2022/04/13 08:43:48;;;;;;;2.42;2.00;;;;;;;;;;5082862;28;20220;-81
2022/04/13 08:46:17;;;;;;;2.55;2.10;;;;;;;;;;5084204;28;20283;-80
2022/04/13 08:48:47;;;;;;;4.40;2.50;;;;;;;;;;5081951;28;20287;-80
2022/04/13 08:51:18;;;;;;;5.00;2.40;;;;;;;;;;5081420;28;20224;-81
2022/04/13 08:53:46;;;;;;;3.15;2.10;;;;;;;;;;5081369;28;20234;-82
2022/04/13 08:56:17;;;;;;;4.78;2.63;;;;;;;;;;5081504;28;20230;-81
2022/04/13 08:58:46;;;;;;;3.63;2.47;;;;;;;;;;5078120;28;20258;-81
2022/04/13 09:01:20;;;;;;;3.03;2.17;;;;;;;;;;5074797;28;20255;-81
2022/04/13 09:03:50;;;;;;;3.55;1.85;;;;;;;;;;5078678;28;20216;-81
2022/04/13 09:06:22;;;;;;;4.90;1.98;;;;;;;;;;5061050;28;20207;-81
2022/04/13 09:08:50;;;;;;;4.45;1.95;;;;;;;;;;5074309;28;20230;-80
2022/04/13 09:11:20;;;;;;;3.33;1.85;;;;;;;;;;5082354;28;20235;-81
2022/04/13 09:13:49;;;;;;;4.28;1.80;;;;;;;;;;5082126;28;20204;-80
2022/04/13 09:16:17;;;;;;;5.28;2.25;;;;;;;;;;5080538;28;20208;-80
2022/04/13 09:18:44;;;;;;;4.85;2.17;;;;;;;;;;5080592;28;20204;-80
2022/04/13 09:21:13;;;;;;;3.95;2.08;;;;;;;;;;5079884;28;20228;-80
2022/04/13 09:23:42;;;;;;;4.28;2.03;;;;;;;;;;5073846;28;20245;-81
2022/04/13 09:26:09;;;;;;;4.07;2.10;;;;;;;;;;5080772;28;20290;-80
2022/04/13 09:28:38;;;;;;;3.38;1.80;;;;;;;;;;5080920;28;20209;-80
2022/04/13 09:31:06;;;;;;;4.13;2.28;;;;;;;;;;5084824;28;20305;-80
2022/04/13 09:33:33;;;;;;;3.17;1.90;;;;;;;;;;5084003;28;20196;-80
2022/04/13 09:36:00;;;;;;;2.67;1.90;;;;;;;;;;5091001;28;20205;-80
2022/04/13 09:38:28;;;;;;;5.75;1.85;;;;;;;;;;5094983;28;20212;-80
2022/04/13 09:41:07;;;;;;;3.45;1.75;;;;;;;;;;5093799;28;20225;-80
2022/04/13 09:43:34;;;;;;;6.85;2.15;;;;;;;;;;5085851;28;20277;-81
2022/04/13 09:46:01;;;;;;;2.47;1.60;;;;;;;;;;5083940;28;20225;-80
2022/04/13 09:48:29;;;;;;;5.15;2.42;;;;;;;;;;5098415;28;20211;-81
2022/04/13 09:50:58;;;;;;;6.13;2.10;;;;;;;;;;5099144;28;20260;-82
2022/04/13 09:53:26;;;;;;;4.60;2.25;;;;;;;;;;5096797;28;20272;-77
2022/04/13 09:55:54;;;;;;;4.13;1.88;;;;;;;;;;5084451;28;20193;-79
2022/04/13 09:58:23;;;;;;;4.50;2.20;;;;;;;;;;5081650;28;20253;-79
2022/04/13 10:00:52;;;;;;;2.33;1.50;;;;;;;;;;5080436;28;20239;-80
2022/04/13 10:03:20;;;;;;;2.95;1.80;;;;;;;;;;5079564;28;20209;-80
2022/04/13 10:05:49;;;;;;;3.72;1.83;;;;;;;;;;5074094;28;20196;-78
2022/04/13 10:08:22;;;;;;;4.05;1.95;;;;;;;;;;5074232;28;20223;-79
2022/04/13 10:10:49;;;;;;;3.78;1.90;;;;;;;;;;5074979;28;20263;-79
2022/04/13 10:13:32;;;;;;;14.35;4.00;;;;;;;;;;5069737;28;20200;-78
2022/04/13 10:16:01;;;;;;;4.35;2.33;;;;;;;;;;5077239;28;20362;-79
2022/04/13 10:18:31;;;;;;;3.50;1.90;;;;;;;;;;5082328;28;20209;-80
2022/04/13 10:20:58;;;;;;;3.78;2.00;;;;;;;;;;5079991;28;20224;-79
2022/04/13 10:23:26;;;;;;;3.30;1.90;;;;;;;;;;5076048;28;20686;-80
2022/04/13 10:26:08;;;;;;;2.35;1.80;;;;;;;;;;5076354;28;20212;-79
2022/04/13 10:28:47;;;;;;;4.72;1.85;;;;;;;;;;5076855;28;20245;-80
2022/04/13 10:31:15;;;;;;;5.57;1.73;;;;;;;;;;5063917;28;20229;-78
2022/04/13 10:33:49;;;;;;;2.80;1.90;;;;;;;;;;5069313;28;20223;-76
2022/04/13 10:36:17;;;;;;;5.85;2.10;;;;;;;;;;5062875;28;20193;-75
2022/04/13 10:38:45;;;;;;;5.95;2.20;;;;;;;;;;5067908;28;20232;-77
2022/04/13 10:41:17;;;;;;;5.40;2.00;;;;;;;;;;5062741;28;20217;-76
2022/04/13 10:43:46;;;;;;;3.10;1.90;;;;;;;;;;5070571;28;20587;-77
2022/04/13 10:46:14;;;;;;;3.22;2.10;;;;;;;;;;5073429;28;20204;-76
2022/04/13 10:48:43;;;;;;;2.92;1.85;;;;;;;;;;5072699;28;20201;-76
2022/04/13 10:51:13;;;;;;;3.17;2.17;;;;;;;;;;5065754;28;20218;-76
2022/04/13 10:53:43;;;;;;;4.18;2.00;;;;;;;;;;5057935;28;20288;-76
2022/04/13 10:56:12;;;;;;;3.08;1.77;;;;;;;;;;5063659;28;20201;-76
2022/04/13 10:58:47;;;;;;;4.03;1.80;;;;;;;;;;5069055;28;20227;-77
2022/04/13 11:01:15;;;;;;;4.22;2.10;;;;;;;;;;5075481;28;20224;-78
2022/04/13 11:03:44;;;;;;;5.70;2.28;;;;;;;;;;5067390;28;20225;-78
2022/04/13 11:06:12;;;;;;;5.93;1.92;;;;;;;;;;5065966;28;20286;-78
2022/04/13 11:08:46;;;;;;;3.85;1.80;;;;;;;;;;5075116;28;20280;-78
2022/04/13 11:11:18;;;;;;;5.22;1.80;;;;;;;;;;5073838;28;20414;-78
2022/04/13 11:13:46;;;;;;;2.58;1.92;;;;;;;;;;5068227;28;20243;-76
2022/04/13 11:16:17;;;;;;;5.82;2.42;;;;;;;;;;5056398;28;20216;-77
2022/04/13 11:19:14;;;;;;;3.58;2.00;;;;;;;;;;5070642;28;20293;-76
2022/04/13 11:22:09;;;;;;;3.17;1.92;;;;;;;;;;5057530;28;20231;-76
2022/04/13 11:24:37;;;;;;;4.38;2.10;;;;;;;;;;5056777;28;20257;-77
2022/04/13 11:27:05;;;;;;;3.75;1.98;;;;;;;;;;5065547;28;20287;-76
2022/04/13 11:29:34;;;;;;;3.45;1.90;;;;;;;;;;5065942;28;20233;-76
2022/04/13 11:32:09;;;;;;;3.78;1.95;;;;;;;;;;5056307;28;20257;-76
2022/04/13 11:34:42;;;;;;;4.57;2.10;;;;;;;;;;5062517;28;20197;-76
2022/04/13 11:37:10;;;;;;;3.15;2.47;;;;;;;;;;5068899;28;20207;-76
2022/04/13 11:39:44;;;;;;;2.45;2.25;;;;;;;;;;5068503;28;20196;-76
2022/04/13 11:42:15;;;;;;;4.95;2.88;;;;;;;;;;5065091;28;20315;-76
2022/04/13 11:44:53;;;;;;;4.80;2.40;;;;;;;;;;5057648;28;20221;-76
2022/04/13 11:47:23;;;;;;;5.25;2.80;;;;;;;;;;5065260;28;20249;-75
2022/04/13 11:49:58;;;;;;;5.53;2.55;;;;;;;;;;5070832;28;20203;-76
2022/04/13 11:52:42;;;;;;;4.30;2.20;;;;;;;;;;5056580;28;20252;-76
2022/04/13 11:55:16;;;;;;;3.85;2.15;;;;;;;;;;5071659;28;20242;-76
2022/04/13 11:58:02;;;;;;;4.65;2.53;;;;;;;;;;5072076;28;20208;-76
2022/04/13 12:00:40;;;;;;;5.03;2.42;;;;;;;;;;5072588;28;20216;-76
2022/04/13 12:03:08;;;;;;;8.50;2.60;;;;;;;;;;5073802;28;20230;-78
2022/04/13 12:05:39;;;;;;;3.53;1.90;;;;;;;;;;5074480;28;20581;-77
2022/04/13 12:08:11;;;;;;;4.32;2.10;;;;;;;;;;5073604;28;20258;-77
2022/04/13 12:10:39;;;;;;;2.70;2.00;;;;;;;;;;5072856;28;20299;-78
2022/04/13 12:13:06;;;;;;;3.50;1.90;;;;;;;;;;5073194;28;20193;-79
2022/04/13 12:15:43;;;;;;;3.78;1.98;;;;;;;;;;5072859;28;20284;-75
2022/04/13 12:18:11;;;;;;;3.35;1.88;;;;;;;;;;5072594;28;20259;-75
2022/04/13 12:20:40;;;;;;;3.42;1.98;;;;;;;;;;5073238;28;20208;-75
2022/04/13 12:23:20;;;;;;;2.65;1.90;;;;;;;;;;5072556;28;20200;-77
2022/04/13 12:25:49;;;;;;;3.15;1.98;;;;;;;;;;5066280;28;20231;-75
2022/04/13 12:28:16;;;;;;;4.10;2.10;;;;;;;;;;5052643;28;20259;-75
2022/04/13 12:30:43;;;;;;;3.40;2.10;;;;;;;;;;5063991;28;20227;-76
2022/04/13 12:33:15;;;;;;;3.83;1.90;;;;;;;;;;5100202;22;20267;-77
2022/04/13 12:35:54;;;;;;;4.50;2.05;;;;;;;;;;5090585;28;20295;-77
2022/04/13 12:38:25;;;;;;;3.47;1.75;;;;;;;;;;5087318;28;20256;-78
2022/04/13 12:41:02;;;;;;;4.85;2.50;;;;;;;;;;5094628;28;20211;-77
2022/04/13 12:43:30;;;;;;;3.58;1.92;;;;;;;;;;5093814;28;20223;-77
2022/04/13 12:45:59;;;;;;;3.58;1.75;;;;;;;;;;5081972;28;20216;-76
2022/04/13 12:48:27;;;;;;;5.72;2.42;;;;;;;;;;5082627;28;20292;-76
2022/04/13 12:51:00;;;;;;;5.22;2.10;;;;;;;;;;5072923;28;20616;-76
2022/04/13 12:53:28;;;;;;;4.38;1.80;;;;;;;;;;5072809;28;20216;-76
2022/04/13 12:55:55;;;;;;;1.92;1.80;;;;;;;;;;5073099;28;20687;-76
2022/04/13 12:58:23;;;;;;;3.90;1.83;;;;;;;;;;5075537;28;20204;-76
2022/04/13 13:00:51;;;;;;;2.75;2.00;;;;;;;;;;5089589;28;20195;-76
2022/04/13 13:03:18;;;;;;;2.75;2.10;;;;;;;;;;5094962;28;20212;-76
2022/04/13 13:05:46;;;;;;;6.05;2.55;;;;;;;;;;5099400;28;20264;-76
2022/04/13 13:08:15;;;;;;;3.75;2.03;;;;;;;;;;5090940;28;20246;-78
2022/04/13 13:10:47;;;;;;;2.90;1.95;;;;;;;;;;5089243;28;20203;-78
2022/04/13 13:13:17;;;;;;;3.65;1.83;;;;;;;;;;5093084;28;20568;-77
2022/04/13 13:15:44;;;;;;;4.10;1.80;;;;;;;;;;5083106;28;20199;-78
2022/04/13 13:18:12;;;;;;;3.97;2.10;;;;;;;;;;5080022;28;20214;-78
2022/04/13 13:20:53;;;;;;;6.75;2.38;;;;;;;;;;5080173;28;20635;-78
2022/04/13 13:23:27;;;;;;;3.38;2.17;;;;;;;;;;5087948;28;20242;-78
2022/04/13 13:25:57;;;;;;;3.42;1.90;;;;;;;;;;5089389;28;20217;-78
2022/04/13 13:28:26;;;;;;;3.72;2.45;;;;;;;;;;5093071;28;20231;-78
2022/04/13 13:30:55;;;;;;;4.00;2.13;;;;;;;;;;5091863;28;20245;-78
2022/04/13 13:33:23;;;;;;;4.82;2.10;;;;;;;;;;5085820;28;20317;-76
2022/04/13 13:35:51;;;;;;;3.63;2.20;;;;;;;;;;5093517;28;20196;-78
2022/04/13 13:38:20;;;;;;;4.05;2.20;;;;;;;;;;5088630;28;20211;-77
2022/04/13 13:40:53;;;;;;;4.40;2.25;;;;;;;;;;5099642;28;20207;-80
2022/04/13 13:43:37;;;;;;;3.58;2.28;;;;;;;;;;5096899;28;20224;-77
2022/04/13 13:46:15;;;;;;;3.90;2.20;;;;;;;;;;5088848;28;20311;-77
2022/04/13 13:48:43;;;;;;;3.97;2.00;;;;;;;;;;5090605;28;20230;-77
2022/04/13 13:51:10;;;;;;;4.90;2.10;;;;;;;;;;5089279;28;20208;-76
2022/04/13 13:53:38;;;;;;;4.70;2.35;;;;;;;;;;5081587;28;20239;-77
2022/04/13 13:56:06;;;;;;;4.82;2.05;;;;;;;;;;5081274;28;20705;-76
2022/04/13 13:58:34;;;;;;;2.88;1.90;;;;;;;;;;5090194;28;20199;-77
2022/04/13 14:01:01;;;;;;;5.18;1.80;;;;;;;;;;5094488;28;20203;-77
2022/04/13 14:03:29;;;;;;;4.43;2.38;;;;;;;;;;5090482;28;20640;-81
2022/04/13 14:06:02;;;;;;;3.30;2.25;;;;;;;;;;5093033;28;20226;-77
2022/04/13 14:08:29;;;;;;;3.35;1.90;;;;;;;;;;5081603;28;20205;-77
2022/04/13 14:11:01;;;;;;;4.40;1.92;;;;;;;;;;5077373;28;20196;-77
2022/04/13 14:13:32;;;;;;;5.65;1.70;;;;;;;;;;5080486;28;20216;-77
2022/04/13 14:15:59;;;;;;;5.90;2.15;;;;;;;;;;5086034;28;20201;-77
2022/04/13 14:18:30;;;;;;;4.97;1.80;;;;;;;;;;5089130;28;20201;-77
2022/04/13 14:20:59;;;;;;;2.50;1.80;;;;;;;;;;5088210;28;20208;-77
2022/04/13 14:23:28;;;;;;;3.60;2.03;;;;;;;;;;5091426;28;20281;-77
2022/04/13 14:25:56;;;;;;;3.70;1.70;;;;;;;;;;5097125;28;20216;-77
2022/04/13 14:28:26;;;;;;;3.53;1.88;;;;;;;;;;5098431;28;20207;-77
2022/04/13 14:30:59;;;;;;;5.97;2.00;;;;;;;;;;5091393;28;20226;-78
2022/04/13 14:33:26;;;;;;;6.70;2.00;;;;;;;;;;5089256;28;20232;-77
2022/04/13 14:35:54;;;;;;;3.72;2.03;;;;;;;;;;5090854;28;20203;-80
2022/04/13 14:38:22;;;;;;;5.30;2.10;;;;;;;;;;5087259;28;20288;-79
2022/04/13 14:40:52;;;;;;;4.35;2.00;;;;;;;;;;5080130;28;20267;-78
2022/04/13 14:43:27;;;;;;;3.35;1.90;;;;;;;;;;5086662;28;20610;-76
2022/04/13 14:46:00;;;;;;;3.65;1.88;;;;;;;;;;5075453;28;20216;-78
2022/04/13 14:48:28;;;;;;;5.90;2.00;;;;;;;;;;5076698;28;20276;-78
2022/04/13 14:50:57;;;;;;;4.10;2.00;;;;;;;;;;5080895;28;20291;-78
2022/04/13 14:53:24;;;;;;;3.20;1.77;;;;;;;;;;5085901;28;20223;-79
2022/04/13 14:55:52;;;;;;;3.13;1.95;;;;;;;;;;5089039;28;20200;-81
2022/04/13 14:58:20;;;;;;;4.45;1.95;;;;;;;;;;5079512;28;20254;-77
2022/04/13 15:00:47;;;;;;;3.97;2.03;;;;;;;;;;5077072;28;20219;-75
2022/04/13 15:03:19;;;;;;;2.90;2.03;;;;;;;;;;5093047;28;20220;-74
2022/04/13 15:08:42;;;;;;;4.05;1.77;;;;;;;;;;5047341;28;20675;-81
2022/04/13 15:11:24;;;;;;;;;;;;;;;;;;;;;
2022/04/13 15:13:58;;;;;;;3.45;1.80;;;;;;;;;;5086544;28;20204;-79
2022/04/13 15:16:27;;;;;;;4.00;2.00;;;;;;;;;;5092659;28;20227;-80
2022/04/13 15:18:58;;;;;;;5.05;1.95;;;;;;;;;;5094011;28;20204;-79
2022/04/13 15:21:28;;;;;;;4.50;1.85;;;;;;;;;;5094594;28;20200;-78
2022/04/13 15:23:56;;;;;;;5.43;1.98;;;;;;;;;;5094262;28;20203;-79
2022/04/13 15:26:23;;;;;;;4.15;1.80;;;;;;;;;;5092220;28;20220;-78
2022/04/13 15:28:50;;;;;;;5.20;2.08;;;;;;;;;;5095168;28;20575;-79
2022/04/13 15:31:22;;;;;;;6.97;1.95;;;;;;;;;;5094961;28;20203;-78
2022/04/13 15:33:50;;;;;;;6.90;2.00;;;;;;;;;;5094603;28;20238;-80
2022/04/13 15:36:19;;;;;;;3.97;1.90;;;;;;;;;;5094795;28;20227;-78
2022/04/13 15:38:46;;;;;;;5.18;1.90;;;;;;;;;;5082834;28;20266;-80
2022/04/13 15:41:19;;;;;;;7.38;2.22;;;;;;;;;;5075120;28;20200;-80
2022/04/13 15:43:54;;;;;;;3.70;1.70;;;;;;;;;;5077898;28;20285;-78
2022/04/13 15:46:23;;;;;;;3.80;2.05;;;;;;;;;;5073983;28;20587;-77
2022/04/13 15:48:55;;;;;;;5.90;1.75;;;;;;;;;;5073681;28;20212;-77
2022/04/13 15:51:24;;;;;;;4.55;1.77;;;;;;;;;;5074843;28;20197;-76
2022/04/13 15:53:52;;;;;;;4.55;2.00;;;;;;;;;;5073307;28;20220;-78
2022/04/13 15:56:19;;;;;;;5.13;1.98;;;;;;;;;;5073399;28;20200;-79
2022/04/13 15:58:46;;;;;;;5.07;1.70;;;;;;;;;;5074064;28;20196;-79
2022/04/13 16:01:14;;;;;;;4.07;2.00;;;;;;;;;;5073941;28;20196;-78
2022/04/13 16:03:47;;;;;;;4.72;1.90;;;;;;;;;;5073252;28;20228;-80
2022/04/13 16:06:14;;;;;;;5.10;1.60;;;;;;;;;;5073728;28;20232;-79
2022/04/13 16:08:54;;;;;;;4.60;1.50;;;;;;;;;;5084745;28;20273;-79
2022/04/13 16:11:21;;;;;;;4.75;1.80;;;;;;;;;;5093439;28;20242;-78
2022/04/13 16:13:54;;;;;;;4.43;2.15;;;;;;;;;;5093314;28;20223;-78
2022/04/13 16:16:33;;;;;;;4.88;1.90;;;;;;;;;;5093085;28;20203;-79
2022/04/13 16:19:01;;;;;;;3.70;1.70;;;;;;;;;;5093760;28;20214;-78
2022/04/13 16:21:28;;;;;;;6.90;1.80;;;;;;;;;;5093317;28;20261;-78
2022/04/13 16:23:59;;;;;;;5.82;1.92;;;;;;;;;;5093148;28;20211;-78
2022/04/13 16:26:26;;;;;;;3.97;2.20;;;;;;;;;;5092363;28;20239;-77
2022/04/13 16:28:54;;;;;;;3.20;1.85;;;;;;;;;;5093074;28;20230;-79
2022/04/13 16:31:21;;;;;;;4.30;1.73;;;;;;;;;;5093097;28;20689;-78
2022/04/13 16:33:49;;;;;;;6.88;2.15;;;;;;;;;;5094377;28;20231;-80
2022/04/13 16:36:18;;;;;;;5.65;2.30;;;;;;;;;;5095370;28;20204;-77
2022/04/13 16:38:45;;;;;;;5.28;2.03;;;;;;;;;;5094684;28;20582;-80
2022/04/13 16:41:14;;;;;;;6.10;2.35;;;;;;;;;;5095570;28;20218;-80
2022/04/13 16:43:44;;;;;;;6.75;2.10;;;;;;;;;;5095346;28;20280;-80
2022/04/13 16:46:18;;;;;;;5.88;2.00;;;;;;;;;;5095306;28;20223;-78
2022/04/13 16:48:57;;;;;;;4.28;2.00;;;;;;;;;;5095013;28;20204;-79
2022/04/13 16:51:24;;;;;;;4.55;2.00;;;;;;;;;;5092614;28;20253;-79
2022/04/13 16:53:54;;;;;;;4.97;2.00;;;;;;;;;;5077096;28;20215;-79
2022/04/13 16:56:26;;;;;;;4.47;2.00;;;;;;;;;;5083687;28;20192;-79
2022/04/13 16:58:54;;;;;;;6.60;2.40;;;;;;;;;;5091935;28;20211;-78
2022/04/13 17:01:21;;;;;;;4.32;2.08;;;;;;;;;;5085990;28;20200;-79
2022/04/13 17:03:54;;;;;;;5.10;2.22;;;;;;;;;;5083116;28;20212;-77
2022/04/13 17:06:21;;;;;;;6.75;2.20;;;;;;;;;;5082693;28;20212;-79
2022/04/13 17:08:51;;;;;;;5.95;2.00;;;;;;;;;;5079251;28;20258;-78
2022/04/13 17:11:20;;;;;;;3.00;1.90;;;;;;;;;;5086280;28;20204;-79
2022/04/13 17:13:50;;;;;;;4.68;2.30;;;;;;;;;;5082899;28;20224;-79
2022/04/13 17:16:24;;;;;;;4.45;1.90;;;;;;;;;;5078906;28;20188;-81
2022/04/13 17:18:54;;;;;;;5.40;2.00;;;;;;;;;;5094591;28;20283;-77
2022/04/13 17:21:22;;;;;;;4.45;2.00;;;;;;;;;;5089496;28;20229;-78
2022/04/13 17:23:49;;;;;;;7.25;2.38;;;;;;;;;;5087916;28;20231;-77
2022/04/13 17:26:17;;;;;;;5.38;2.00;;;;;;;;;;5085974;28;20208;-79
2022/04/13 17:28:45;;;;;;;6.45;2.22;;;;;;;;;;5086218;28;20647;-79
2022/04/13 17:31:16;;;;;;;3.47;1.85;;;;;;;;;;5084294;28;20215;-80
2022/04/13 17:33:46;;;;;;;3.58;1.83;;;;;;;;;;5081473;28;20252;-78
2022/04/13 17:36:14;;;;;;;5.38;2.20;;;;;;;;;;5078884;28;20192;-79
2022/04/13 17:38:41;;;;;;;5.35;2.30;;;;;;;;;;5084608;28;20205;-79
2022/04/13 17:41:10;;;;;;;3.90;2.00;;;;;;;;;;5083487;28;20268;-81
2022/04/13 17:43:37;;;;;;;4.60;2.28;;;;;;;;;;5082962;28;20309;-79
2022/04/13 17:46:12;;;;;;;3.33;2.35;;;;;;;;;;5086481;28;20230;-79
2022/04/13 17:48:41;;;;;;;3.45;2.08;;;;;;;;;;5084492;28;20202;-77
2022/04/13 17:51:11;;;;;;;3.17;1.92;;;;;;;;;;5087489;28;20204;-79
2022/04/13 17:53:42;;;;;;;5.05;2.67;;;;;;;;;;5090932;28;20311;-80
2022/04/13 17:56:09;;;;;;;4.50;2.53;;;;;;;;;;5093356;28;20208;-79
2022/04/13 17:58:38;;;;;;;5.32;2.53;;;;;;;;;;5100225;28;20200;-79
2022/04/13 18:01:17;;;;;;;4.32;2.65;;;;;;;;;;5099307;28;20210;-78
2022/04/13 18:06:29;;;;;;;4.82;2.53;;;;;;;;;;5089861;28;20216;-76
2022/04/13 18:08:59;;;;;;;7.45;2.72;;;;;;;;;;5092806;28;20215;-81
2022/04/13 18:11:27;;;;;;;4.50;2.78;;;;;;;;;;5090916;28;20216;-79
2022/04/13 18:14:00;;;;;;;7.00;2.80;;;;;;;;;;5093604;28;20192;-76
2022/04/13 18:16:29;;;;;;;4.90;2.50;;;;;;;;;;5091076;28;20203;-78
2022/04/13 18:18:59;;;;;;;4.15;2.50;;;;;;;;;;5089655;28;20251;-79
2022/04/13 18:21:29;;;;;;;4.40;2.40;;;;;;;;;;5092772;28;20200;-79
2022/04/13 18:23:57;;;;;;;3.33;2.10;;;;;;;;;;5088298;28;20195;-79
2022/04/13 18:26:27;;;;;;;7.72;2.95;;;;;;;;;;5092286;28;20235;-77
2022/04/13 18:28:54;;;;;;;4.97;2.60;;;;;;;;;;5092308;28;20268;-78
2022/04/13 18:31:28;;;;;;;8.00;2.80;;;;;;;;;;5093779;28;20219;-82
2022/04/13 18:33:56;;;;;;;11.68;3.20;;;;;;;;;;5087557;22;20224;-79
2022/04/13 18:36:24;;;;;;;11.60;3.78;;;;;;;;;;5054030;28;20248;-81
2022/04/13 18:38:55;;;;;;;12.52;3.90;;;;;;;;;;5049669;28;20220;-79
2022/04/13 18:41:23;;;;;;;12.75;4.40;;;;;;;;;;5050043;28;20189;-80
2022/04/13 18:43:50;;;;;;;9.55;4.05;;;;;;;;;;5057083;28;20248;-80
2022/04/13 18:46:17;;;;;;;5.90;3.35;;;;;;;;;;5054302;28;20283;-78
2022/04/13 18:48:47;;;;;;;10.55;4.18;;;;;;;;;;5052969;28;20205;-81
2022/04/13 18:51:14;;;;;;;12.18;4.25;;;;;;;;;;5059574;28;20228;-80
2022/04/13 18:53:43;;;;;;;7.65;3.95;;;;;;;;;;5052802;28;20260;-79
2022/04/13 18:56:10;;;;;;;8.85;3.90;;;;;;;;;;5051344;28;20310;-78
2022/04/13 18:58:38;;;;;;;4.95;3.40;;;;;;;;;;5051210;28;20202;-78
2022/04/13 19:01:05;;;;;;;4.55;2.88;;;;;;;;;;5051553;28;20201;-81
2022/04/13 19:03:33;;;;;;;6.75;2.95;;;;;;;;;;5050311;28;20690;-80
2022/04/13 19:06:00;;;;;;;6.82;2.80;;;;;;;;;;5038566;28;20202;-82
2022/04/13 19:08:31;;;;;;;6.93;2.72;;;;;;;;;;5053882;28;20205;-80
2022/04/13 19:11:03;;;;;;;3.78;2.50;;;;;;;;;;5041490;28;20194;-85
2022/04/13 19:13:31;;;;;;;4.95;2.90;;;;;;;;;;5106222;22;20254;-82
2022/04/13 19:15:59;;;;;;;6.55;3.08;;;;;;;;;;5099855;28;20192;-81
2022/04/13 19:18:26;;;;;;;6.95;3.67;;;;;;;;;;5087015;28;20262;-81
2022/04/13 19:20:56;;;;;;;12.52;4.93;;;;;;;;;;5088030;28;20199;-79
2022/04/13 19:23:24;;;;;;;7.90;4.13;;;;;;;;;;5083922;28;20250;-85
2022/04/13 19:25:53;;;;;;;8.60;3.92;;;;;;;;;;5075902;28;20203;-79
2022/04/13 19:28:22;;;;;;;5.13;3.22;;;;;;;;;;5066418;28;20210;-79
2022/04/13 19:30:53;;;;;;;4.97;3.60;;;;;;;;;;5066285;28;20204;-79
2022/04/13 19:33:21;;;;;;;7.57;3.78;;;;;;;;;;5060617;28;20233;-80
2022/04/13 19:35:48;;;;;;;9.10;4.07;;;;;;;;;;5088519;28;20204;-78
2022/04/13 19:38:16;;;;;;;6.53;3.58;;;;;;;;;;5076875;28;20198;-78
2022/04/13 19:40:44;;;;;;;7.07;3.58;;;;;;;;;;5053908;28;20288;-78
2022/04/13 19:43:11;;;;;;;7.03;3.55;;;;;;;;;;5064954;28;20250;-81
2022/04/13 19:45:41;;;;;;;9.82;3.90;;;;;;;;;;5056428;28;20197;-79
2022/04/13 19:48:09;;;;;;;10.18;4.00;;;;;;;;;;5060885;28;20266;-78
2022/04/13 19:50:36;;;;;;;5.57;3.58;;;;;;;;;;5059041;28;20219;-80